This is the latest recevied weather packets stored in our database for station/object WB3IGR. If no packets are shown the sender has not sent any weather packets the latest 1 day(s).
| Time | Temp. | Humidity | Pressure | Rain* | Wind** | Luminosity | Snow |
|---|---|---|---|---|---|---|---|
| 1778003750 | 26.67° C | 38% | 1010.8 hPa | 0 mm | 2.24 m/s, 336° | 725 W/m² | - |
| 1778003447 | 27.22° C | 42% | 1010.6 hPa | 0 mm | 2.68 m/s, 298° | 718 W/m² | - |
| 1778003144 | 27.22° C | 45% | 1010.6 hPa | 0 mm | 1.79 m/s, 197° | 734 W/m² | - |
| 1778002840 | 27.22° C | 44% | 1010.7 hPa | 0 mm | 2.24 m/s, 240° | 771 W/m² | - |
| 1778002537 | 25.56° C | 45% | 1010.9 hPa | 0 mm | 1.34 m/s, 310° | 749 W/m² | - |
| 1778002234 | 26.67° C | 44% | 1010.9 hPa | 0 mm | 4.02 m/s, 178° | 136 W/m² | - |
| 1778001932 | 26.67° C | 44% | 1010.8 hPa | 0 mm | 1.79 m/s, 258° | 735 W/m² | - |
| 1778001628 | 26.67° C | 45% | 1010.8 hPa | 0 mm | 3.13 m/s, 248° | 766 W/m² | - |
| 1778001322 | 26.67° C | 43% | 1011.1 hPa | 0 mm | 2.68 m/s, 328° | 763 W/m² | - |
| 1778001020 | 26.11° C | 45% | 1011.1 hPa | 0 mm | 4.92 m/s, 231° | 752 W/m² | - |
| 1778000716 | 26.67° C | 44% | 1011.1 hPa | 0 mm | 1.79 m/s, 253° | 763 W/m² | - |
| 1778000413 | 26.11° C | 46% | 1011.2 hPa | 0 mm | 1.79 m/s, 248° | 693 W/m² | - |
| 1778000108 | 26.11° C | 46% | 1011.2 hPa | 0 mm | 2.68 m/s, 341° | 764 W/m² | - |
| 1777999804 | 26.67° C | 45% | 1011.3 hPa | 0 mm | 2.24 m/s, 317° | 715 W/m² | - |
| 1777999500 | 26.67° C | 47% | 1011.5 hPa | 0 mm | 2.24 m/s, 246° | 675 W/m² | - |
| 1777999199 | 26.11° C | 46% | 1011.3 hPa | 0 mm | 3.13 m/s, 320° | 709 W/m² | - |
| 1777998897 | 26.11° C | 47% | 1011.6 hPa | 0 mm | 3.58 m/s, 222° | 745 W/m² | - |
| 1777998596 | 26.11° C | 46% | 1011.7 hPa | 0 mm | 1.34 m/s, 275° | 725 W/m² | - |
| 1777998291 | 26.11° C | 46% | 1011.7 hPa | 0 mm | 2.68 m/s, 310° | 742 W/m² | - |
| 1777997988 | 25.56° C | 46% | 1011.6 hPa | 0 mm | 1.79 m/s, 301° | 734 W/m² | - |
| 1777997685 | 26.11° C | 46% | 1011.5 hPa | 0 mm | 2.68 m/s, 295° | 738 W/m² | - |
| 1777997382 | 26.11° C | 47% | 1011.5 hPa | 0 mm | 2.24 m/s, 325° | 723 W/m² | - |
| 1777997080 | 25.56° C | 48% | 1011.7 hPa | 0 mm | 2.24 m/s, 265° | 722 W/m² | - |
| 1777996776 | 25.56° C | 46% | 1011.5 hPa | 0 mm | 4.02 m/s, 273° | 707 W/m² | - |
| 1777996473 | 25.56° C | 47% | 1011.6 hPa | 0 mm | 3.13 m/s, 264° | 689 W/m² | - |
* Rain latest hour (hover to see other rain measurements)
** Current wind speed in m/s (hover to see current wind gust speed)